Terminal Aerodrome Forecast
Issued by NWS Sterling, VA

Home | Current Version | Previous Version | Text Only | Print | Product List | Glossary On
Versions: 1 2 3 4 5 6 7 8 9 10 11 12 13 14 15 16 17 18 19 20 21 22 23 24 25
000
FTUS41 KLWX 232000 AAA
TAFBWI
TAF AMD
KBWI 232050Z 2321/2424 32013G23KT P6SM BKN050
     FM240300 33010KT P6SM SCT050
     FM240600 31011KT P6SM BKN050
     FM240900 31010KT P6SM SCT050
     FM241200 31011KT P6SM BKN050
     FM241500 32011KT P6SM FEW250=

USA.gov is the U.S. government's official web portal to all federal, state and local government web resources and services.